Time;durP1;ratioP1;P1;durP2;ratioP2;P2;SDS_P1;SDS_P2;PMS_P1;PMS_P2;Temp;Humidity;BMP_temperature;BMP_pressure;BME280_temperature;BME280_humidity;BME280_pressure;Samples;Min_cycle;Max_cycle;Signal;HPM_P1;HPM_P2
2022/02/02 00:02:12;;;;;;;1.58;0.60;;;;;;;;;;5032609;28;20034;-76
2022/02/02 00:04:45;;;;;;;2.50;0.68;;;;;;;;;;5032612;28;20120;-76
2022/02/02 00:09:38;;;;;;;2.35;0.68;;;;;;;;;;5039759;28;20025;-76
2022/02/02 00:12:16;;;;;;;1.52;0.60;;;;;;;;;;5053249;28;20129;-76
2022/02/02 00:17:19;;;;;;;1.75;0.60;;;;;;;;;;5053403;28;20037;-76
2022/02/02 00:20:01;;;;;;;2.03;0.75;;;;;;;;;;5053118;28;20025;-76
2022/02/02 00:22:34;;;;;;;0.70;0.38;;;;;;;;;;5051614;28;20044;-76
2022/02/02 00:27:30;;;;;;;1.58;0.40;;;;;;;;;;5053127;28;19905;-76
2022/02/02 00:30:00;;;;;;;1.60;0.55;;;;;;;;;;5053173;28;20020;-76
2022/02/02 00:32:56;;;;;;;1.35;0.57;;;;;;;;;;5051220;28;20040;-76
2022/02/02 00:35:27;;;;;;;2.05;0.43;;;;;;;;;;5053210;28;20025;-76
2022/02/02 00:37:53;;;;;;;1.45;0.30;;;;;;;;;;5052901;28;20082;-76
2022/02/02 00:40:19;;;;;;;1.25;0.38;;;;;;;;;;5053364;28;20047;-76
2022/02/02 00:42:49;;;;;;;0.68;0.45;;;;;;;;;;5063068;28;20024;-76
2022/02/02 00:45:15;;;;;;;0.60;0.30;;;;;;;;;;5073014;28;20025;-76
2022/02/02 00:47:46;;;;;;;0.50;0.30;;;;;;;;;;5072662;28;20086;-76
2022/02/02 00:50:12;;;;;;;0.90;0.47;;;;;;;;;;5071492;28;20040;-76
2022/02/02 00:52:38;;;;;;;0.82;0.32;;;;;;;;;;5068921;28;20025;-76
2022/02/02 00:55:05;;;;;;;0.50;0.30;;;;;;;;;;5051661;28;20036;-76
2022/02/02 00:57:31;;;;;;;1.85;0.32;;;;;;;;;;5052263;28;20025;-76
2022/02/02 00:59:58;;;;;;;0.30;0.30;;;;;;;;;;5052390;28;20048;-76
2022/02/02 01:02:24;;;;;;;0.40;0.30;;;;;;;;;;5052123;28;20052;-76
2022/02/02 01:04:50;;;;;;;0.57;0.13;;;;;;;;;;5052337;28;20408;-76
2022/02/02 01:07:46;;;;;;;1.02;0.30;;;;;;;;;;5050965;28;20079;-76
2022/02/02 01:18:25;;;;;;;0.40;0.20;;;;;;;;;;5072419;28;20113;-76
2022/02/02 01:20:59;;;;;;;0.10;0.10;;;;;;;;;;5049997;28;20167;-76
2022/02/02 01:28:56;;;;;;;1.67;0.10;;;;;;;;;;5032163;28;20041;-76
2022/02/02 01:31:22;;;;;;;0.80;0.20;;;;;;;;;;5032663;28;20045;-76
2022/02/02 01:33:49;;;;;;;0.30;0.20;;;;;;;;;;5031505;28;20025;-76
2022/02/02 01:36:15;;;;;;;0.10;0.10;;;;;;;;;;5032448;28;20022;-76
2022/02/02 01:38:43;;;;;;;0.90;0.20;;;;;;;;;;5031871;28;20117;-76
2022/02/02 01:41:17;;;;;;;0.20;0.10;;;;;;;;;;5033870;28;20026;-76
2022/02/02 01:44:11;;;;;;;0.98;0.10;;;;;;;;;;5051650;28;20049;-76
2022/02/02 01:46:34;;;;;;;0.30;0.20;;;;;;;;;;5051799;28;20033;-76
2022/02/02 01:49:57;;;;;;;0.10;0.10;;;;;;;;;;5051860;28;20025;-76
2022/02/02 01:59:44;;;;;;;0.10;0.10;;;;;;;;;;5031572;28;20042;-76
2022/02/02 02:02:10;;;;;;;0.20;0.13;;;;;;;;;;5031656;28;20029;-76
2022/02/02 02:04:37;;;;;;;0.10;0.10;;;;;;;;;;5030418;28;20034;-76
2022/02/02 02:07:04;;;;;;;0.35;0.32;;;;;;;;;;5030723;28;20025;-76
2022/02/02 02:09:30;;;;;;;0.50;0.10;;;;;;;;;;5030036;28;20122;-76
2022/02/02 02:12:00;;;;;;;0.10;0.10;;;;;;;;;;5031613;28;20105;-76
2022/02/02 02:17:11;;;;;;;0.70;0.20;;;;;;;;;;5031805;28;20103;-76
2022/02/02 02:19:41;;;;;;;0.10;0.10;;;;;;;;;;5059737;28;20040;-76
2022/02/02 02:22:10;;;;;;;1.38;0.20;;;;;;;;;;5031500;28;20544;-76
2022/02/02 02:24:38;;;;;;;0.03;0.03;;;;;;;;;;5030449;28;20116;-76
2022/02/02 02:27:05;;;;;;;0.17;0.17;;;;;;;;;;5034557;28;20036;-76
2022/02/02 02:40:22;;;;;;;0.10;0.10;;;;;;;;;;5034922;28;20030;-76
2022/02/02 02:56:17;;;;;;;0.10;0.10;;;;;;;;;;5055333;28;20052;-76
2022/02/02 02:58:59;;;;;;;0.10;0.00;;;;;;;;;;5054248;28;20045;-76
2022/02/02 03:01:47;;;;;;;0.35;0.10;;;;;;;;;;5054367;28;20029;-76
2022/02/02 03:58:49;;;;;;;0.00;0.00;;;;;;;;;;5053468;28;20057;-76
2022/02/02 04:06:20;;;;;;;0.00;0.00;;;;;;;;;;5053610;28;20025;-76
2022/02/02 04:08:46;;;;;;;0.05;0.05;;;;;;;;;;5053765;28;20040;-76
2022/02/02 04:11:17;;;;;;;0.00;0.00;;;;;;;;;;5053082;28;20037;-76
2022/02/02 04:39:08;;;;;;;0.00;0.00;;;;;;;;;;5073216;28;20103;-76
2022/02/02 04:55:27;;;;;;;0.10;0.00;;;;;;;;;;5032847;28;20477;-76
2022/02/02 04:58:03;;;;;;;0.03;0.03;;;;;;;;;;5034534;28;20030;-76
2022/02/02 05:11:04;;;;;;;0.10;0.00;;;;;;;;;;5037294;28;20040;-76
2022/02/02 05:24:45;;;;;;;0.00;0.00;;;;;;;;;;5052742;28;20029;-76
2022/02/02 05:43:20;;;;;;;0.10;0.10;;;;;;;;;;5053410;28;20033;-76
2022/02/02 05:48:42;;;;;;;0.00;0.00;;;;;;;;;;5032447;28;20044;-76
2022/02/02 05:53:37;;;;;;;0.00;0.00;;;;;;;;;;5043546;28;20124;-76
2022/02/02 05:56:04;;;;;;;0.00;0.00;;;;;;;;;;5052344;28;20033;-76
2022/02/02 05:58:31;;;;;;;0.00;0.00;;;;;;;;;;5051674;28;20044;-76
2022/02/02 06:00:59;;;;;;;0.00;0.00;;;;;;;;;;5052070;28;20119;-76
2022/02/02 06:03:40;;;;;;;0.00;0.00;;;;;;;;;;5056202;28;20031;-76
2022/02/02 06:06:07;;;;;;;0.00;0.00;;;;;;;;;;5056128;28;20438;-76
2022/02/02 06:08:34;;;;;;;0.03;0.03;;;;;;;;;;5056123;28;20020;-76
2022/02/02 06:11:04;;;;;;;0.00;0.00;;;;;;;;;;5054581;28;20033;-76
2022/02/02 06:13:54;;;;;;;0.10;0.10;;;;;;;;;;5053760;28;20317;-76
2022/02/02 06:16:17;;;;;;;0.03;0.00;;;;;;;;;;5055272;28;20512;-76
2022/02/02 06:18:53;;;;;;;0.00;0.00;;;;;;;;;;5054305;28;20524;-76
2022/02/02 06:21:22;;;;;;;0.13;0.03;;;;;;;;;;5055190;28;20033;-76
2022/02/02 06:23:52;;;;;;;0.00;0.00;;;;;;;;;;5055755;28;20377;-76
2022/02/02 06:26:20;;;;;;;0.10;0.10;;;;;;;;;;5054147;28;20484;-76
2022/02/02 06:28:46;;;;;;;0.00;0.00;;;;;;;;;;5054261;28;20021;-76
2022/02/02 06:31:14;;;;;;;0.82;0.10;;;;;;;;;;5055567;28;20400;-76
2022/02/02 06:33:41;;;;;;;0.50;0.10;;;;;;;;;;5054666;28;20025;-76
2022/02/02 06:36:09;;;;;;;0.32;0.13;;;;;;;;;;5060258;28;20078;-76
2022/02/02 06:38:38;;;;;;;0.10;0.00;;;;;;;;;;5075330;28;20112;-76
2022/02/02 06:41:04;;;;;;;0.05;0.00;;;;;;;;;;5073972;28;20035;-76
2022/02/02 06:43:31;;;;;;;0.50;0.10;;;;;;;;;;5054458;28;20067;-76
2022/02/02 06:45:59;;;;;;;0.10;0.10;;;;;;;;;;5053791;28;20125;-76
2022/02/02 06:48:29;;;;;;;0.10;0.10;;;;;;;;;;5054824;28;20104;-76
2022/02/02 06:51:02;;;;;;;0.30;0.22;;;;;;;;;;5055167;28;20033;-76
2022/02/02 06:53:37;;;;;;;0.80;0.10;;;;;;;;;;5044171;28;20030;-76
2022/02/02 06:56:34;;;;;;;0.10;0.10;;;;;;;;;;5035048;28;20045;-76
2022/02/02 07:01:48;;;;;;;0.00;0.00;;;;;;;;;;5034586;28;20038;-76
2022/02/02 07:07:22;;;;;;;0.30;0.10;;;;;;;;;;5034172;28;20488;-76
2022/02/02 07:10:09;;;;;;;0.15;0.00;;;;;;;;;;5068844;28;20487;-76
2022/02/02 07:13:10;;;;;;;0.10;0.03;;;;;;;;;;5073659;28;20029;-76
2022/02/02 07:18:28;;;;;;;0.15;0.10;;;;;;;;;;5063122;28;20048;-76
2022/02/02 07:23:52;;;;;;;0.20;0.20;;;;;;;;;;5054176;28;19991;-75
2022/02/02 07:34:11;;;;;;;0.20;0.20;;;;;;;;;;5054350;28;20037;-75
2022/02/02 07:36:40;;;;;;;0.20;0.17;;;;;;;;;;5054176;28;20409;-75
2022/02/02 07:39:10;;;;;;;1.17;0.22;;;;;;;;;;5054391;28;20035;-75
2022/02/02 07:41:39;;;;;;;0.20;0.20;;;;;;;;;;5061047;28;20036;-75
2022/02/02 07:44:16;;;;;;;0.20;0.20;;;;;;;;;;5053730;28;20020;-76
2022/02/02 07:47:11;;;;;;;0.40;0.25;;;;;;;;;;5054020;28;20104;-76
2022/02/02 07:49:40;;;;;;;0.30;0.20;;;;;;;;;;5053342;28;20087;-76
2022/02/02 07:52:08;;;;;;;0.13;0.13;;;;;;;;;;5050646;28;20067;-76
2022/02/02 07:54:39;;;;;;;0.30;0.20;;;;;;;;;;5033938;28;20029;-75
2022/02/02 07:57:14;;;;;;;0.20;0.20;;;;;;;;;;5048736;28;20044;-74
2022/02/02 08:03:19;;;;;;;2.45;0.20;;;;;;;;;;5040783;28;20485;-73
2022/02/02 08:05:27;;;;;;;9.05;1.80;;;;;;;;;;5045135;28;20036;-74
2022/02/02 08:08:31;;;;;;;5.95;0.55;;;;;;;;;;5045827;28;20029;-75
2022/02/02 08:10:48;;;;;;;11.55;0.82;;;;;;;;;;5038508;28;20037;-72
2022/02/02 08:13:19;;;;;;;12.93;0.75;;;;;;;;;;5037452;28;20108;-73
2022/02/02 08:15:50;;;;;;;9.13;0.40;;;;;;;;;;5041774;28;20104;-73
2022/02/02 08:18:16;;;;;;;7.85;0.85;;;;;;;;;;5036320;28;20130;-73
2022/02/02 08:20:42;;;;;;;7.10;0.75;;;;;;;;;;5044047;28;20040;-73
2022/02/02 08:23:09;;;;;;;9.45;0.63;;;;;;;;;;5043343;28;20025;-75
2022/02/02 08:25:37;;;;;;;2.85;0.40;;;;;;;;;;5045036;28;20104;-73
2022/02/02 08:28:05;;;;;;;7.75;0.77;;;;;;;;;;5054070;28;20909;-74
2022/02/02 08:30:31;;;;;;;5.47;0.70;;;;;;;;;;5046665;28;20034;-73
2022/02/02 08:33:00;;;;;;;5.72;0.63;;;;;;;;;;5051761;28;20062;-72
2022/02/02 08:35:27;;;;;;;2.90;0.45;;;;;;;;;;5044973;28;20034;-73
2022/02/02 08:40:34;;;;;;;4.15;0.30;;;;;;;;;;5048829;28;20032;-73
2022/02/02 08:43:07;;;;;;;3.50;0.20;;;;;;;;;;5048296;28;20032;-74
2022/02/02 08:45:36;;;;;;;2.97;0.65;;;;;;;;;;5038327;28;20713;-72
2022/02/02 08:48:04;;;;;;;8.20;0.45;;;;;;;;;;5042798;28;20053;-73
2022/02/02 08:51:15;;;;;;;6.70;0.70;;;;;;;;;;5054047;28;20028;-73
2022/02/02 08:58:35;;;;;;;2.05;0.40;;;;;;;;;;5051805;28;20106;-73
2022/02/02 09:01:03;;;;;;;;;;;;;;;;;;5053466;28;20036;-72
2022/02/02 09:06:15;;;;;;;5.25;0.68;;;;;;;;;;5056556;28;20064;-73
2022/02/02 09:08:45;;;;;;;2.88;0.35;;;;;;;;;;5052318;28;20028;-73
2022/02/02 09:35:54;;;;;;;5.60;0.40;;;;;;;;;;5047109;28;20037;-74
2022/02/02 09:38:21;;;;;;;5.75;0.35;;;;;;;;;;5050106;28;20029;-74
2022/02/02 09:41:29;;;;;;;1.10;0.40;;;;;;;;;;5047143;28;20067;-76
2022/02/02 09:44:04;;;;;;;3.80;0.38;;;;;;;;;;5047507;28;20014;-73
2022/02/02 09:46:41;;;;;;;3.75;0.50;;;;;;;;;;5045747;28;20030;-74
2022/02/02 09:49:17;;;;;;;4.05;0.55;;;;;;;;;;5044864;28;20090;-77
2022/02/02 09:51:49;;;;;;;1.70;0.28;;;;;;;;;;5040382;28;20108;-75
2022/02/02 09:59:52;;;;;;;7.32;0.50;;;;;;;;;;5039478;28;20056;-75
2022/02/02 10:05:10;;;;;;;4.90;0.28;;;;;;;;;;5041363;28;20032;-77
2022/02/02 10:15:25;;;;;;;1.38;0.40;;;;;;;;;;5047028;28;20044;-74
2022/02/02 10:17:59;;;;;;;2.42;0.30;;;;;;;;;;5036336;28;20025;-77
2022/02/02 10:20:26;;;;;;;7.30;0.50;;;;;;;;;;5055902;28;20031;-76
2022/02/02 10:22:53;;;;;;;2.30;0.40;;;;;;;;;;5055388;28;20655;-77
2022/02/02 10:25:24;;;;;;;3.75;0.50;;;;;;;;;;5031696;28;20028;-78
2022/02/02 10:27:50;;;;;;;1.55;0.40;;;;;;;;;;5042531;28;20040;-79
2022/02/02 10:30:18;;;;;;;2.75;0.40;;;;;;;;;;5049547;28;20055;-78
2022/02/02 10:32:46;;;;;;;4.18;0.50;;;;;;;;;;5050778;28;20051;-77
2022/02/02 10:35:28;;;;;;;2.58;0.30;;;;;;;;;;5047505;28;20040;-79
2022/02/02 10:37:58;;;;;;;3.25;0.30;;;;;;;;;;5047423;28;20605;-74
2022/02/02 10:41:15;;;;;;;3.60;0.40;;;;;;;;;;5046209;28;20037;-74
2022/02/02 10:43:44;;;;;;;1.67;0.30;;;;;;;;;;5034667;28;20037;-73
2022/02/02 10:46:10;;;;;;;0.90;0.40;;;;;;;;;;5041321;28;20019;-75
2022/02/02 10:48:45;;;;;;;3.17;0.30;;;;;;;;;;5057353;28;20993;-75
2022/02/02 10:51:27;;;;;;;2.83;0.22;;;;;;;;;;5053978;28;20029;-75
2022/02/02 10:54:29;;;;;;;1.17;0.28;;;;;;;;;;5041362;28;20029;-77
2022/02/02 10:57:09;;;;;;;2.17;0.30;;;;;;;;;;5049471;28;20025;-76
2022/02/02 11:07:54;;;;;;;2.55;0.30;;;;;;;;;;5038206;28;20452;-76
2022/02/02 11:10:20;;;;;;;3.20;0.40;;;;;;;;;;5045738;28;20174;-77
2022/02/02 11:12:48;;;;;;;3.72;0.22;;;;;;;;;;5039898;28;20071;-77
2022/02/02 11:15:33;;;;;;;3.53;0.38;;;;;;;;;;5041230;28;20564;-78
2022/02/02 11:18:06;;;;;;;1.10;0.20;;;;;;;;;;5046383;28;20030;-77
2022/02/02 11:20:32;;;;;;;3.15;0.40;;;;;;;;;;5036017;28;20032;-77
2022/02/02 11:22:59;;;;;;;1.63;0.40;;;;;;;;;;5053021;28;20387;-77
2022/02/02 11:25:25;;;;;;;5.53;0.40;;;;;;;;;;5049527;28;20534;-76
2022/02/02 11:27:56;;;;;;;3.28;0.30;;;;;;;;;;5043919;28;20025;-77
2022/02/02 11:30:25;;;;;;;4.45;0.52;;;;;;;;;;5043029;28;20025;-79
2022/02/02 11:32:52;;;;;;;0.77;0.45;;;;;;;;;;5036608;28;20029;-77
2022/02/02 11:35:46;;;;;;;1.05;0.22;;;;;;;;;;5042512;28;20029;-76
2022/02/02 11:38:21;;;;;;;;;;;;;;;;;;5041804;28;20020;-77
2022/02/02 11:41:32;;;;;;;4.65;0.63;;;;;;;;;;5049240;28;19939;-77
2022/02/02 11:44:24;;;;;;;2.47;0.30;;;;;;;;;;5034447;28;20130;-76
2022/02/02 11:47:20;;;;;;;5.43;0.30;;;;;;;;;;5031459;28;20025;-78
2022/02/02 11:50:04;;;;;;;2.75;0.38;;;;;;;;;;5039306;28;20048;-77
2022/02/02 11:52:35;;;;;;;4.50;0.40;;;;;;;;;;5039118;28;20051;-77
2022/02/02 11:55:03;;;;;;;5.43;0.40;;;;;;;;;;5045454;28;20123;-78
2022/02/02 11:57:35;;;;;;;2.45;0.50;;;;;;;;;;5033667;28;20334;-76
2022/02/02 12:00:33;;;;;;;3.92;0.50;;;;;;;;;;5042637;28;20135;-76
2022/02/02 12:10:39;;;;;;;1.90;0.50;;;;;;;;;;5035955;28;20092;-76
2022/02/02 12:19:12;;;;;;;8.63;0.63;;;;;;;;;;5034009;28;20039;-76
2022/02/02 12:27:55;;;;;;;5.32;0.75;;;;;;;;;;5000674;28;20025;-73
2022/02/02 12:47:06;;;;;;;2.53;0.30;;;;;;;;;;5035477;28;20445;-75
2022/02/02 12:57:37;;;;;;;2.30;0.40;;;;;;;;;;5043806;28;20475;-72
2022/02/02 13:00:10;;;;;;;5.55;0.50;;;;;;;;;;5029172;28;20032;-74
2022/02/02 13:02:38;;;;;;;1.15;0.50;;;;;;;;;;5044686;28;20021;-74
2022/02/02 13:05:04;;;;;;;2.25;0.30;;;;;;;;;;5043070;28;20910;-74
2022/02/02 13:07:34;;;;;;;2.58;0.40;;;;;;;;;;5048421;28;20029;-75
2022/02/02 13:10:03;;;;;;;3.80;0.50;;;;;;;;;;5024516;28;20025;-75
2022/02/02 13:12:54;;;;;;;1.10;0.28;;;;;;;;;;5042720;28;20087;-74
2022/02/02 13:15:41;;;;;;;4.97;0.50;;;;;;;;;;5042217;28;20040;-75
2022/02/02 13:18:27;;;;;;;1.25;0.30;;;;;;;;;;5037997;28;20029;-74
2022/02/02 13:21:06;;;;;;;3.67;0.40;;;;;;;;;;5038550;28;20487;-75
2022/02/02 13:26:20;;;;;;;2.35;0.47;;;;;;;;;;5045729;28;20025;-76
2022/02/02 13:29:04;;;;;;;3.83;0.30;;;;;;;;;;5051391;28;20025;-75
2022/02/02 13:31:37;;;;;;;;;;;;;;;;;;5038742;28;20055;-75
2022/02/02 13:34:10;;;;;;;2.30;0.50;;;;;;;;;;5048203;28;20398;-74
2022/02/02 13:36:55;;;;;;;4.15;0.30;;;;;;;;;;5023880;28;20248;-77
2022/02/02 13:50:55;;;;;;;3.03;0.40;;;;;;;;;;5042143;28;19956;-76
2022/02/02 13:56:12;;;;;;;;;;;;;;;;;;5042358;28;20497;-76
2022/02/02 14:04:33;;;;;;;1.90;0.15;;;;;;;;;;5043471;28;20037;-76
2022/02/02 14:31:15;;;;;;;0.30;0.20;;;;;;;;;;5044120;28;20716;-73
2022/02/02 14:33:42;;;;;;;1.00;0.30;;;;;;;;;;5039000;28;20060;-74
2022/02/02 14:36:11;;;;;;;2.80;0.20;;;;;;;;;;5022571;28;20029;-76
2022/02/02 14:46:19;;;;;;;2.80;0.20;;;;;;;;;;5037981;28;20026;-73
2022/02/02 14:48:58;;;;;;;0.65;0.30;;;;;;;;;;5029339;28;20018;-74
2022/02/02 15:29:14;;;;;;;1.17;0.30;;;;;;;;;;5048502;28;20040;-75
2022/02/02 15:31:42;;;;;;;2.50;0.30;;;;;;;;;;5047978;28;20756;-75
2022/02/02 15:34:13;;;;;;;2.97;0.40;;;;;;;;;;5024781;28;20032;-77
2022/02/02 15:39:21;;;;;;;3.40;0.30;;;;;;;;;;5041545;28;20045;-76
2022/02/02 15:55:40;;;;;;;3.45;0.60;;;;;;;;;;5050172;28;20539;-76
2022/02/02 15:58:13;;;;;;;2.40;0.40;;;;;;;;;;5049398;28;20080;-75
2022/02/02 16:03:28;;;;;;;3.28;0.70;;;;;;;;;;5046538;28;20068;-78
2022/02/02 16:06:01;;;;;;;2.28;0.50;;;;;;;;;;5047625;28;20043;-76
2022/02/02 16:08:28;;;;;;;2.33;0.60;;;;;;;;;;5034128;28;20049;-76
2022/02/02 16:13:46;;;;;;;1.55;0.40;;;;;;;;;;5046504;28;20610;-79
2022/02/02 16:16:36;;;;;;;3.60;0.52;;;;;;;;;;5040973;28;21785;-76
2022/02/02 16:35:46;;;;;;;8.57;0.95;;;;;;;;;;5033804;28;20120;-76
2022/02/02 16:38:14;;;;;;;4.75;0.70;;;;;;;;;;5026716;28;20040;-76
2022/02/02 16:40:43;;;;;;;2.75;0.70;;;;;;;;;;5042038;28;20108;-76
2022/02/02 16:43:14;;;;;;;2.45;0.50;;;;;;;;;;5047110;28;20124;-76
2022/02/02 16:45:52;;;;;;;3.22;0.60;;;;;;;;;;5041637;28;20026;-75
2022/02/02 16:48:18;;;;;;;2.05;0.70;;;;;;;;;;5030658;28;20048;-76
2022/02/02 16:50:47;;;;;;;5.85;0.93;;;;;;;;;;5039195;28;20395;-75
2022/02/02 16:53:43;;;;;;;2.58;0.65;;;;;;;;;;5040306;28;20060;-75
2022/02/02 16:56:20;;;;;;;2.63;0.98;;;;;;;;;;5039797;28;20029;-74
2022/02/02 17:37:25;;;;;;;3.10;0.70;;;;;;;;;;5040052;28;20047;-74
2022/02/02 18:15:59;;;;;;;2.38;0.98;;;;;;;;;;5045630;28;20087;-74
2022/02/02 18:20:20;;;;;;;1.17;0.70;;;;;;;;;;5037643;28;20025;-75
2022/02/02 18:22:52;;;;;;;0.95;0.45;;;;;;;;;;5052516;28;20017;-74
2022/02/02 18:31:02;;;;;;;1.63;0.40;;;;;;;;;;5033432;28;20184;-74
2022/02/02 18:33:47;;;;;;;1.60;0.50;;;;;;;;;;5040778;28;20108;-75
2022/02/02 18:36:27;;;;;;;1.60;0.40;;;;;;;;;;5023683;28;20033;-75
2022/02/02 18:58:15;;;;;;;1.15;0.50;;;;;;;;;;5035731;28;20467;-75
2022/02/02 19:57:22;;;;;;;2.13;0.75;;;;;;;;;;5032922;28;20037;-74
2022/02/02 20:05:16;;;;;;;0.73;0.45;;;;;;;;;;5042604;28;20435;-74
2022/02/02 20:12:39;;;;;;;1.17;0.60;;;;;;;;;;5051543;28;20021;-75
2022/02/02 20:15:06;;;;;;;1.15;0.65;;;;;;;;;;5015990;28;20144;-74
2022/02/02 20:17:34;;;;;;;0.90;0.70;;;;;;;;;;5041712;28;20159;-75
2022/02/02 20:20:12;;;;;;;0.85;0.50;;;;;;;;;;5041285;28;20503;-76
2022/02/02 20:25:24;;;;;;;2.10;0.70;;;;;;;;;;5031348;28;20021;-75
2022/02/02 20:28:03;;;;;;;1.23;0.75;;;;;;;;;;5047994;28;20021;-75
2022/02/02 20:30:29;;;;;;;0.95;0.68;;;;;;;;;;5042836;28;20024;-76
2022/02/02 20:32:55;;;;;;;0.82;0.60;;;;;;;;;;5014205;28;20025;-75
2022/02/02 20:35:22;;;;;;;1.00;0.82;;;;;;;;;;5044458;28;20117;-75
2022/02/02 20:37:48;;;;;;;1.30;0.75;;;;;;;;;;5033062;28;20047;-75
2022/02/02 20:40:14;;;;;;;0.80;0.60;;;;;;;;;;5030924;28;20095;-75
2022/02/02 20:42:57;;;;;;;0.88;0.60;;;;;;;;;;5027425;28;20017;-75
2022/02/02 21:06:45;;;;;;;0.88;0.70;;;;;;;;;;5038884;28;20071;-75
2022/02/02 21:14:15;;;;;;;1.95;0.45;;;;;;;;;;5038589;28;20568;-75
2022/02/02 21:16:44;;;;;;;0.80;0.70;;;;;;;;;;5029954;28;20049;-75
2022/02/02 21:19:21;;;;;;;1.23;0.60;;;;;;;;;;5036853;28;20393;-75
2022/02/02 21:21:52;;;;;;;0.90;0.70;;;;;;;;;;5028186;28;20060;-75
2022/02/02 21:29:37;;;;;;;1.23;0.50;;;;;;;;;;5029970;28;20041;-75
2022/02/02 21:32:03;;;;;;;0.98;0.68;;;;;;;;;;5037645;28;20108;-75
2022/02/02 21:34:29;;;;;;;0.68;0.65;;;;;;;;;;5038375;28;20021;-75
2022/02/02 21:37:01;;;;;;;1.02;0.63;;;;;;;;;;5047720;28;20025;-75
2022/02/02 21:39:28;;;;;;;0.80;0.50;;;;;;;;;;5049890;28;20021;-75
2022/02/02 21:41:56;;;;;;;1.33;0.60;;;;;;;;;;5039361;28;20494;-75
2022/02/02 21:44:22;;;;;;;0.80;0.60;;;;;;;;;;5036426;28;20072;-75
2022/02/02 21:46:49;;;;;;;1.52;0.90;;;;;;;;;;5046456;28;20440;-76
2022/02/02 21:49:18;;;;;;;0.80;0.60;;;;;;;;;;5041438;28;20391;-75
2022/02/02 21:52:09;;;;;;;0.63;0.50;;;;;;;;;;5049838;28;20040;-76
2022/02/02 21:54:36;;;;;;;0.85;0.70;;;;;;;;;;5049838;28;20051;-75
2022/02/02 21:57:02;;;;;;;0.73;0.60;;;;;;;;;;5033441;28;20033;-75
2022/02/02 21:59:30;;;;;;;0.98;0.65;;;;;;;;;;5049533;28;20480;-77
2022/02/02 22:01:56;;;;;;;1.02;0.70;;;;;;;;;;5047169;28;20048;-75
2022/02/02 22:04:22;;;;;;;0.70;0.50;;;;;;;;;;5035416;28;20072;-75
2022/02/02 22:06:49;;;;;;;0.90;0.68;;;;;;;;;;5041141;28;20459;-76
2022/02/02 22:09:15;;;;;;;0.65;0.60;;;;;;;;;;5049642;28;20056;-75
2022/02/02 22:11:41;;;;;;;0.82;0.60;;;;;;;;;;5041878;28;20037;-75
2022/02/02 22:14:13;;;;;;;0.85;0.45;;;;;;;;;;5036930;28;20017;-75
2022/02/02 22:16:41;;;;;;;1.08;0.75;;;;;;;;;;5037225;28;20140;-75
2022/02/02 22:19:08;;;;;;;0.60;0.47;;;;;;;;;;5030411;28;20739;-76
2022/02/02 22:21:34;;;;;;;0.68;0.50;;;;;;;;;;5036357;28;20029;-76
2022/02/02 22:24:02;;;;;;;1.05;0.70;;;;;;;;;;5048652;28;20492;-75
2022/02/02 22:26:28;;;;;;;0.68;0.60;;;;;;;;;;5041415;28;20512;-75
2022/02/02 22:28:55;;;;;;;1.08;0.70;;;;;;;;;;5032560;28;20103;-75
2022/02/02 22:31:21;;;;;;;1.25;0.70;;;;;;;;;;5031538;28;20025;-75
2022/02/02 22:33:47;;;;;;;0.73;0.63;;;;;;;;;;5040082;28;20109;-75
2022/02/02 22:36:14;;;;;;;0.85;0.57;;;;;;;;;;5029859;28;20521;-75
2022/02/02 22:38:43;;;;;;;1.38;0.85;;;;;;;;;;5045357;28;20518;-76
2022/02/02 22:41:10;;;;;;;1.02;0.70;;;;;;;;;;5038412;28;20032;-75
2022/02/02 22:43:43;;;;;;;1.77;0.85;;;;;;;;;;5032053;28;20025;-75
2022/02/02 22:46:09;;;;;;;0.90;0.80;;;;;;;;;;5039168;28;20033;-75
2022/02/02 22:48:38;;;;;;;0.68;0.55;;;;;;;;;;5040321;28;20013;-75
2022/02/02 22:51:04;;;;;;;1.90;0.68;;;;;;;;;;5015147;28;20111;-74
2022/02/02 22:53:30;;;;;;;1.17;0.63;;;;;;;;;;5043166;28;20380;-74
2022/02/02 22:55:57;;;;;;;1.00;0.60;;;;;;;;;;5042236;28;20033;-74
2022/02/02 22:58:23;;;;;;;1.35;0.60;;;;;;;;;;5041369;28;20036;-74
2022/02/02 23:00:49;;;;;;;0.70;0.60;;;;;;;;;;5022904;28;20095;-74
2022/02/02 23:03:19;;;;;;;0.77;0.70;;;;;;;;;;5052942;28;20063;-74
2022/02/02 23:05:49;;;;;;;1.15;0.80;;;;;;;;;;5043724;28;20022;-74
2022/02/02 23:08:18;;;;;;;1.38;0.60;;;;;;;;;;5032803;28;20022;-74
2022/02/02 23:10:44;;;;;;;1.00;0.60;;;;;;;;;;5031007;28;20112;-74
2022/02/02 23:13:11;;;;;;;0.90;0.60;;;;;;;;;;5044800;28;20021;-74
2022/02/02 23:15:43;;;;;;;1.92;0.50;;;;;;;;;;5025823;28;20049;-74
2022/02/02 23:18:16;;;;;;;0.60;0.50;;;;;;;;;;5041932;28;20393;-75
2022/02/02 23:20:45;;;;;;;0.77;0.57;;;;;;;;;;5048520;28;20029;-74
2022/02/02 23:23:11;;;;;;;1.17;0.70;;;;;;;;;;5040349;28;20014;-74
2022/02/02 23:25:37;;;;;;;1.23;0.50;;;;;;;;;;5029948;28;20025;-74
2022/02/02 23:28:04;;;;;;;0.60;0.60;;;;;;;;;;5033684;28;20028;-74
2022/02/02 23:30:32;;;;;;;1.02;0.68;;;;;;;;;;5046246;28;20041;-74
2022/02/02 23:33:01;;;;;;;0.98;0.65;;;;;;;;;;5049948;28;20024;-74
2022/02/02 23:35:28;;;;;;;1.35;0.70;;;;;;;;;;5051849;28;20021;-75
2022/02/02 23:37:55;;;;;;;0.82;0.63;;;;;;;;;;5033520;28;20450;-75
2022/02/02 23:40:21;;;;;;;1.00;0.75;;;;;;;;;;5033809;28;20481;-74
2022/02/02 23:42:47;;;;;;;1.15;0.70;;;;;;;;;;5036615;28;20029;-74
2022/02/02 23:45:14;;;;;;;0.95;0.70;;;;;;;;;;5039715;28;20018;-75
2022/02/02 23:47:41;;;;;;;1.08;0.63;;;;;;;;;;5022363;28;20025;-74
2022/02/02 23:50:12;;;;;;;1.15;0.80;;;;;;;;;;5042418;28;20450;-74
2022/02/02 23:55:16;;;;;;;0.70;0.63;;;;;;;;;;5043425;28;20025;-74
